createdAt,value
2023-03-21T00:00:45.578Z,8.13
2023-03-21T00:03:24.667Z,8.15
2023-03-21T00:05:55.501Z,8.13
2023-03-21T00:08:28.262Z,8.12
2023-03-21T00:10:58.874Z,8.15
2023-03-21T00:13:31.957Z,8.11
2023-03-21T00:16:10.216Z,8.09
2023-03-21T00:18:54.801Z,8.11
2023-03-21T00:24:16.663Z,8.05
2023-03-21T00:26:46.003Z,8.06
2023-03-21T00:29:16.092Z,8.04
2023-03-21T00:31:44.986Z,8.02
2023-03-21T00:34:14.408Z,8.01
2023-03-21T00:36:43.360Z,8.02
2023-03-21T00:39:13.599Z,8.00
2023-03-21T00:41:43.595Z,8.01
2023-03-21T00:44:15.120Z,7.98
2023-03-21T00:47:00.553Z,8.01
2023-03-21T00:49:37.936Z,8.04
2023-03-21T00:52:18.331Z,8.04
2023-03-21T00:54:54.485Z,8.02
2023-03-21T00:57:37.586Z,8.05
2023-03-21T01:00:11.392Z,8.05
2023-03-21T01:03:08.592Z,8.04
2023-03-21T01:06:01.716Z,8.05
2023-03-21T01:08:44.568Z,8.02
2023-03-21T01:11:22.618Z,8.01
2023-03-21T01:14:04.287Z,8.02
2023-03-21T01:16:40.684Z,8.01
2023-03-21T01:19:23.906Z,8.00
2023-03-21T01:22:02.274Z,7.98
2023-03-21T01:24:32.477Z,7.97
2023-03-21T01:27:03.482Z,7.95
2023-03-21T01:29:32.652Z,7.94
2023-03-21T01:32:04.526Z,7.94
2023-03-21T01:34:33.384Z,7.94
2023-03-21T01:37:06.276Z,7.90
2023-03-21T01:39:41.876Z,7.90
2023-03-21T01:42:14.024Z,7.84
2023-03-21T01:44:56.737Z,7.85
2023-03-21T01:47:27.057Z,7.80
2023-03-21T01:50:15.241Z,7.77
2023-03-21T01:53:22.202Z,7.76
2023-03-21T01:55:51.415Z,7.73
2023-03-21T01:58:44.717Z,7.73
2023-03-21T02:01:45.603Z,7.70
2023-03-21T02:04:16.380Z,7.68
2023-03-21T02:06:52.380Z,7.67
2023-03-21T02:09:45.212Z,7.68
2023-03-21T02:12:18.608Z,7.63
2023-03-21T02:14:49.942Z,7.64
2023-03-21T02:17:49.600Z,7.60
2023-03-21T02:21:01.104Z,7.61
2023-03-21T02:24:09.447Z,7.56
2023-03-21T02:27:04.077Z,7.53
2023-03-21T02:30:08.768Z,7.53
2023-03-21T02:33:09.422Z,7.51
2023-03-21T02:35:56.785Z,7.54
2023-03-21T02:38:36.116Z,7.53
2023-03-21T02:41:18.160Z,7.54
2023-03-21T02:43:56.532Z,7.54
2023-03-21T02:46:43.948Z,7.58
2023-03-21T02:49:22.201Z,7.58
2023-03-21T02:51:51.816Z,7.61
2023-03-21T02:54:41.904Z,7.61
2023-03-21T02:57:19.187Z,7.66
2023-03-21T02:59:55.435Z,7.64
2023-03-21T03:02:32.985Z,7.67
2023-03-21T03:05:20.697Z,7.67
2023-03-21T03:08:06.613Z,7.67
2023-03-21T03:10:56.305Z,7.68
2023-03-21T03:13:43.824Z,7.67
2023-03-21T03:16:27.002Z,7.71
2023-03-21T03:18:58.095Z,7.68
2023-03-21T03:21:32.503Z,7.70
2023-03-21T03:24:09.383Z,7.67
2023-03-21T03:26:45.440Z,7.71
2023-03-21T03:29:16.674Z,7.68
2023-03-21T03:31:51.130Z,7.67
2023-03-21T03:34:21.518Z,7.66
2023-03-21T03:36:56.445Z,7.67
2023-03-21T03:39:33.602Z,7.67
2023-03-21T03:42:18.523Z,7.64
2023-03-21T03:44:59.296Z,7.63
2023-03-21T03:47:37.969Z,7.63
2023-03-21T03:50:18.185Z,7.61
2023-03-21T03:52:56.516Z,7.63
2023-03-21T03:55:33.829Z,7.60
2023-03-21T03:58:21.731Z,7.57
2023-03-21T04:00:56.220Z,7.61
2023-03-21T04:03:25.666Z,7.58
2023-03-21T04:05:54.894Z,7.58
2023-03-21T04:08:24.086Z,7.57
2023-03-21T04:10:55.640Z,7.57
2023-03-21T04:13:25.515Z,7.57
2023-03-21T04:16:12.283Z,7.56
2023-03-21T04:18:41.992Z,7.57
2023-03-21T04:21:14.052Z,7.53
2023-03-21T04:23:43.187Z,7.54
2023-03-21T04:26:12.797Z,7.54
2023-03-21T04:28:46.131Z,7.51
2023-03-21T04:31:35.453Z,7.54
2023-03-21T04:34:12.037Z,7.51
2023-03-21T04:36:45.330Z,7.50
2023-03-21T04:39:15.062Z,7.50
2023-03-21T04:41:46.312Z,7.51
2023-03-21T04:44:18.476Z,7.53
2023-03-21T04:46:51.578Z,7.50
2023-03-21T04:49:24.396Z,7.51
2023-03-21T04:51:55.942Z,7.51
2023-03-21T04:54:26.772Z,7.50
2023-03-21T04:57:00.179Z,7.50
2023-03-21T04:59:29.564Z,7.50
2023-03-21T05:01:59.222Z,7.50
2023-03-21T05:04:30.474Z,7.51
2023-03-21T05:07:03.279Z,7.51
2023-03-21T05:09:32.364Z,7.53
2023-03-21T05:12:01.965Z,7.53
2023-03-21T05:14:32.295Z,7.56
2023-03-21T05:17:04.767Z,7.56
2023-03-21T05:19:34.959Z,7.57
2023-03-21T05:22:08.012Z,7.57
2023-03-21T05:24:38.674Z,7.57
2023-03-21T05:27:08.801Z,7.58
2023-03-21T05:29:42.141Z,7.60
2023-03-21T05:32:12.388Z,7.60
2023-03-21T05:34:41.323Z,7.64
2023-03-21T05:37:12.276Z,7.64
2023-03-21T05:39:47.774Z,7.67
2023-03-21T05:42:23.511Z,7.64
2023-03-21T05:44:53.865Z,7.67
2023-03-21T05:47:28.154Z,7.66
2023-03-21T05:49:57.354Z,7.71
2023-03-21T05:52:28.112Z,7.68
2023-03-21T05:54:56.961Z,7.74
2023-03-21T05:57:28.356Z,7.73
2023-03-21T06:00:03.786Z,7.74
2023-03-21T06:02:45.336Z,7.76
2023-03-21T06:05:43.315Z,7.77
2023-03-21T06:08:19.422Z,7.77
2023-03-21T06:10:48.403Z,7.77
2023-03-21T06:13:17.592Z,7.78
2023-03-21T06:15:46.513Z,7.80
2023-03-21T06:18:19.005Z,7.83
2023-03-21T06:21:08.118Z,7.87
2023-03-21T06:23:37.066Z,7.93
2023-03-21T06:26:09.330Z,7.90
2023-03-21T06:28:39.771Z,7.95
2023-03-21T06:31:09.073Z,7.97
2023-03-21T06:33:38.208Z,8.01
2023-03-21T06:36:12.996Z,8.05
2023-03-21T06:38:42.038Z,8.04
2023-03-21T06:41:12.798Z,8.06
2023-03-21T06:43:48.690Z,8.06
2023-03-21T06:46:17.807Z,8.06
2023-03-21T06:48:46.935Z,8.08
2023-03-21T06:51:16.636Z,8.06
2023-03-21T06:53:58.681Z,8.06
2023-03-21T06:56:41.107Z,8.04
2023-03-21T06:59:12.139Z,8.06
2023-03-21T07:01:53.057Z,8.06
2023-03-21T07:04:22.741Z,8.09
2023-03-21T07:06:51.881Z,8.15
2023-03-21T07:09:27.494Z,8.19
2023-03-21T07:11:59.101Z,8.28
2023-03-21T07:14:34.528Z,8.29
2023-03-21T07:17:03.631Z,8.30
2023-03-21T07:19:32.550Z,8.32
2023-03-21T07:22:02.388Z,8.33
2023-03-21T07:24:31.461Z,8.40
2023-03-21T07:27:01.120Z,8.43
2023-03-21T07:29:30.016Z,8.47
2023-03-21T07:32:02.007Z,8.51
2023-03-21T07:34:33.290Z,8.53
2023-03-21T07:37:06.486Z,8.58
2023-03-21T07:39:35.914Z,8.65
2023-03-21T07:42:05.157Z,8.75
2023-03-21T07:44:39.898Z,8.85
2023-03-21T07:47:09.103Z,8.92
2023-03-21T07:49:38.223Z,9.04
2023-03-21T07:52:07.371Z,9.13
2023-03-21T07:54:36.370Z,9.23
2023-03-21T07:57:05.276Z,9.25
2023-03-21T07:59:34.057Z,9.30
2023-03-21T08:02:03.015Z,9.41
2023-03-21T08:04:35.069Z,9.47
2023-03-21T08:07:03.960Z,9.58
2023-03-21T08:09:35.680Z,9.65
2023-03-21T08:12:07.792Z,9.71
2023-03-21T08:14:37.181Z,9.72
2023-03-21T08:17:06.461Z,9.81
2023-03-21T08:19:36.942Z,9.85
2023-03-21T08:22:06.263Z,9.94
2023-03-21T08:24:35.106Z,9.98
2023-03-21T08:27:04.013Z,10.01
2023-03-21T08:29:39.869Z,10.08
2023-03-21T08:32:08.859Z,10.15
2023-03-21T08:34:37.669Z,10.22
2023-03-21T08:37:06.580Z,10.27
2023-03-21T08:39:35.605Z,10.37
2023-03-21T08:42:05.137Z,10.47
2023-03-21T08:44:35.303Z,10.67
2023-03-21T08:47:04.185Z,10.82
2023-03-21T08:49:33.042Z,10.92
2023-03-21T08:52:02.427Z,10.96
2023-03-21T08:54:31.775Z,10.95
2023-03-21T08:57:01.440Z,10.94
2023-03-21T08:59:30.422Z,10.82
2023-03-21T09:02:02.925Z,10.77
2023-03-21T09:04:32.573Z,10.81
2023-03-21T09:07:02.398Z,10.88
2023-03-21T09:09:32.068Z,10.92
2023-03-21T09:12:03.503Z,10.94
2023-03-21T09:14:35.476Z,10.92
2023-03-21T09:17:04.458Z,10.91
2023-03-21T09:19:35.996Z,10.91
2023-03-21T09:22:04.854Z,10.92
2023-03-21T09:24:35.015Z,10.94
2023-03-21T09:27:03.935Z,10.94
2023-03-21T09:29:33.631Z,10.95
2023-03-21T09:32:03.546Z,10.99
2023-03-21T09:34:32.826Z,11.10
2023-03-21T09:37:02.921Z,11.13
2023-03-21T09:39:32.981Z,11.02
2023-03-21T09:42:18.832Z,10.94
2023-03-21T09:45:00.870Z,10.84
2023-03-21T09:47:37.247Z,10.77
2023-03-21T09:50:17.394Z,10.77
2023-03-21T09:52:50.136Z,10.71
2023-03-21T09:55:22.025Z,10.70
2023-03-21T09:58:00.180Z,10.64
2023-03-21T10:00:34.598Z,10.56
2023-03-21T10:03:09.588Z,10.48
2023-03-21T10:05:44.149Z,10.48
2023-03-21T10:08:21.877Z,10.44
2023-03-21T10:10:55.316Z,10.48
2023-03-21T10:13:27.719Z,10.54
2023-03-21T10:15:58.433Z,10.52
2023-03-21T10:18:29.703Z,10.51
2023-03-21T10:20:59.106Z,10.52
2023-03-21T10:23:30.101Z,10.51
2023-03-21T10:26:02.247Z,10.48
2023-03-21T10:31:33.090Z,10.58
2023-03-21T10:34:09.745Z,10.70
2023-03-21T10:36:39.939Z,10.77
2023-03-21T10:39:19.469Z,10.79
2023-03-21T10:41:48.260Z,10.85
2023-03-21T10:44:18.124Z,10.79
2023-03-21T10:46:56.497Z,10.77
2023-03-21T10:49:56.407Z,10.79
2023-03-21T10:52:30.460Z,10.81
2023-03-21T10:55:16.649Z,10.78
2023-03-21T10:57:46.908Z,10.74
2023-03-21T11:00:22.382Z,10.68
2023-03-21T11:02:53.800Z,10.58
2023-03-21T11:05:27.204Z,10.47
2023-03-21T11:08:06.438Z,10.40
2023-03-21T11:10:38.322Z,10.33
2023-03-21T11:13:19.213Z,10.36
2023-03-21T11:15:54.766Z,10.44
2023-03-21T11:18:25.882Z,10.64
2023-03-21T11:20:56.876Z,10.86
2023-03-21T11:23:29.943Z,11.17
2023-03-21T11:26:00.772Z,11.62
2023-03-21T11:28:37.129Z,12.12
2023-03-21T11:31:08.728Z,12.57
2023-03-21T11:33:43.965Z,12.94
2023-03-21T11:36:33.744Z,13.13
2023-03-21T11:39:15.448Z,13.14
2023-03-21T11:41:51.183Z,13.06
2023-03-21T11:44:30.282Z,12.91
2023-03-21T11:47:02.981Z,12.65
2023-03-21T11:49:32.167Z,12.41
2023-03-21T11:52:21.925Z,12.26
2023-03-21T11:55:07.024Z,12.07
2023-03-21T11:57:44.111Z,11.93
2023-03-21T12:00:20.361Z,11.79
2023-03-21T12:03:15.302Z,11.65
2023-03-21T12:05:53.161Z,11.57
2023-03-21T12:08:32.805Z,11.50
2023-03-21T12:11:13.261Z,11.37
2023-03-21T12:13:53.522Z,11.29
2023-03-21T12:16:40.723Z,11.24
2023-03-21T12:19:34.114Z,11.24
2023-03-21T12:22:13.600Z,11.30
2023-03-21T12:24:50.835Z,11.36
2023-03-21T12:27:32.931Z,11.44
2023-03-21T12:30:36.694Z,11.51
2023-03-21T12:33:24.364Z,11.61
2023-03-21T12:36:10.702Z,11.69
2023-03-21T12:38:48.192Z,11.79
2023-03-21T12:41:26.828Z,11.78
2023-03-21T12:44:02.803Z,11.82
2023-03-21T12:46:40.065Z,11.88
2023-03-21T12:49:16.352Z,11.92
2023-03-21T12:51:49.463Z,11.95
2023-03-21T12:54:27.408Z,11.93
2023-03-21T12:57:02.854Z,11.96
2023-03-21T12:59:38.295Z,11.93
2023-03-21T13:02:18.775Z,11.86
2023-03-21T13:04:55.660Z,11.82
2023-03-21T13:07:26.635Z,11.75
2023-03-21T13:09:57.392Z,11.67
2023-03-21T13:12:41.791Z,11.62
2023-03-21T13:15:24.318Z,11.64
2023-03-21T13:18:01.071Z,11.62
2023-03-21T13:20:43.514Z,11.65
2023-03-21T13:23:17.964Z,11.67
2023-03-21T13:25:48.848Z,11.75
2023-03-21T13:28:22.430Z,11.85
2023-03-21T13:30:52.135Z,12.05
2023-03-21T13:33:29.603Z,12.27
2023-03-21T13:36:06.651Z,12.51
2023-03-21T13:38:39.723Z,12.64
2023-03-21T13:41:13.068Z,12.74
2023-03-21T13:43:45.758Z,12.72
2023-03-21T13:46:46.951Z,12.65
2023-03-21T13:49:30.568Z,12.61
2023-03-21T13:52:02.252Z,12.48
2023-03-21T13:54:50.443Z,12.45
2023-03-21T13:57:40.010Z,12.44
2023-03-21T14:00:19.208Z,12.43
2023-03-21T14:03:00.598Z,12.40
2023-03-21T14:05:29.753Z,12.39
2023-03-21T14:08:12.660Z,12.33
2023-03-21T14:10:48.937Z,12.27
2023-03-21T14:13:21.122Z,12.27
2023-03-21T14:15:56.266Z,12.29
2023-03-21T14:18:51.744Z,12.30
2023-03-21T14:21:25.149Z,12.27
2023-03-21T14:24:01.910Z,12.20
2023-03-21T14:26:34.047Z,12.15
2023-03-21T14:29:09.692Z,12.09
2023-03-21T14:31:46.963Z,12.03
2023-03-21T14:34:17.168Z,12.02
2023-03-21T14:36:56.863Z,12.02
2023-03-21T14:39:30.398Z,12.05
2023-03-21T14:42:04.393Z,12.00
2023-03-21T14:44:53.582Z,11.96
2023-03-21T14:47:25.108Z,11.89
2023-03-21T14:49:55.884Z,11.85
2023-03-21T14:52:29.966Z,11.82
2023-03-21T14:54:59.890Z,11.78
2023-03-21T14:57:31.227Z,11.75
2023-03-21T15:00:12.001Z,11.68
2023-03-21T15:02:42.977Z,11.61
2023-03-21T15:05:18.661Z,11.53
2023-03-21T15:07:56.045Z,11.50
2023-03-21T15:10:27.680Z,11.44
2023-03-21T15:12:58.673Z,11.36
2023-03-21T15:15:30.228Z,11.31
2023-03-21T15:18:06.459Z,11.24
2023-03-21T15:20:38.206Z,11.19
2023-03-21T15:23:12.712Z,11.13
2023-03-21T15:25:43.497Z,11.06
2023-03-21T15:28:14.518Z,11.02
2023-03-21T15:30:50.611Z,11.00
2023-03-21T15:33:23.596Z,10.98
2023-03-21T15:35:55.991Z,10.94
2023-03-21T15:38:33.257Z,10.92
2023-03-21T15:41:16.711Z,10.88
2023-03-21T15:43:46.882Z,10.82
2023-03-21T15:46:17.574Z,10.77
2023-03-21T15:48:46.760Z,10.68
2023-03-21T15:51:21.534Z,10.60
2023-03-21T15:53:53.891Z,10.52
2023-03-21T15:56:34.225Z,10.47
2023-03-21T15:59:06.041Z,10.41
2023-03-21T16:01:38.428Z,10.30
2023-03-21T16:04:10.507Z,10.24
2023-03-21T16:06:52.249Z,10.16
2023-03-21T16:09:25.690Z,10.08
2023-03-21T16:11:58.341Z,10.02
2023-03-21T16:14:28.039Z,9.94
2023-03-21T16:17:13.861Z,9.84
2023-03-21T16:19:43.842Z,9.78
2023-03-21T16:22:15.364Z,9.68
2023-03-21T16:24:44.648Z,9.60
2023-03-21T16:27:17.161Z,9.53
2023-03-21T16:29:46.518Z,9.41
2023-03-21T16:32:16.935Z,9.32
2023-03-21T16:34:46.176Z,9.22
2023-03-21T16:37:18.238Z,9.15
2023-03-21T16:39:47.274Z,9.01
2023-03-21T16:42:16.160Z,8.94
2023-03-21T16:44:45.183Z,8.79
2023-03-21T16:47:18.040Z,8.68
2023-03-21T16:49:47.785Z,8.56
2023-03-21T16:52:17.661Z,8.44
2023-03-21T16:54:46.591Z,8.35
2023-03-21T16:57:27.661Z,8.21
2023-03-21T16:59:57.058Z,8.09
2023-03-21T17:02:26.957Z,7.97
2023-03-21T17:04:57.719Z,7.87
2023-03-21T17:07:27.003Z,7.77
2023-03-21T17:09:57.485Z,7.66
2023-03-21T17:12:26.586Z,7.56
2023-03-21T17:14:55.795Z,7.42
2023-03-21T17:17:24.923Z,7.30
2023-03-21T17:19:54.004Z,7.15
2023-03-21T17:22:22.929Z,7.02
2023-03-21T17:24:52.039Z,6.90
2023-03-21T17:27:20.924Z,6.80
2023-03-21T17:29:50.259Z,6.67
2023-03-21T17:32:19.755Z,6.59
2023-03-21T17:34:52.580Z,6.49
2023-03-21T17:37:25.485Z,6.42
2023-03-21T17:39:55.500Z,6.33
2023-03-21T17:42:24.502Z,6.28
2023-03-21T17:44:53.750Z,6.22
2023-03-21T17:47:25.107Z,6.12
2023-03-21T17:49:54.452Z,6.05
2023-03-21T17:52:24.712Z,5.98
2023-03-21T17:54:53.891Z,5.89
2023-03-21T17:57:22.792Z,5.83
2023-03-21T17:59:52.501Z,5.73
2023-03-21T18:02:21.403Z,5.66
2023-03-21T18:04:50.430Z,5.62
2023-03-21T18:07:28.691Z,5.55
2023-03-21T18:10:14.289Z,5.46
2023-03-21T18:12:43.581Z,5.37
2023-03-21T18:15:17.046Z,5.32
2023-03-21T18:17:46.195Z,5.27
2023-03-21T18:20:19.896Z,5.20
2023-03-21T18:22:52.094Z,5.18
2023-03-21T18:25:21.572Z,5.08
2023-03-21T18:28:09.949Z,5.04
2023-03-21T18:31:00.950Z,4.94
2023-03-21T18:33:31.360Z,4.86
2023-03-21T18:36:07.016Z,4.79
2023-03-21T18:38:37.408Z,4.72
2023-03-21T18:41:08.112Z,4.68
2023-03-21T18:46:30.304Z,4.55
2023-03-21T18:49:27.052Z,4.48
2023-03-21T18:51:51.990Z,4.42
2023-03-21T18:54:22.909Z,4.42
2023-03-21T18:59:40.929Z,4.37
2023-03-21T19:02:16.325Z,4.38
2023-03-21T19:04:46.001Z,4.35
2023-03-21T19:07:15.167Z,4.32
2023-03-21T19:10:05.853Z,4.29
2023-03-21T19:12:33.611Z,4.24
2023-03-21T19:15:05.445Z,4.21
2023-03-21T19:20:23.880Z,4.11
2023-03-21T19:22:53.596Z,4.07
2023-03-21T19:25:22.630Z,4.03
2023-03-21T19:27:52.320Z,3.96
2023-03-21T19:30:21.551Z,3.92
2023-03-21T19:32:50.386Z,3.88
2023-03-21T19:35:19.609Z,3.80
2023-03-21T19:37:48.410Z,3.76
2023-03-21T19:40:21.032Z,3.72
2023-03-21T19:42:50.155Z,3.69
2023-03-21T19:45:22.210Z,3.65
2023-03-21T19:47:51.096Z,3.61
2023-03-21T19:50:57.910Z,3.58
2023-03-21T19:53:09.207Z,3.51
2023-03-21T19:55:38.309Z,3.50
2023-03-21T19:58:12.094Z,3.45
2023-03-21T20:00:41.227Z,3.45
2023-03-21T20:03:10.432Z,3.43
2023-03-21T20:05:41.842Z,3.37
2023-03-21T20:08:12.765Z,3.34
2023-03-21T20:10:44.949Z,3.32
2023-03-21T20:13:14.422Z,3.28
2023-03-21T20:15:48.097Z,3.24
2023-03-21T20:18:16.573Z,3.24
2023-03-21T20:20:45.492Z,3.21
2023-03-21T20:23:17.153Z,3.20
2023-03-21T20:25:47.701Z,3.16
2023-03-21T20:28:25.496Z,3.14
2023-03-21T20:30:57.794Z,3.10
2023-03-21T20:33:27.819Z,3.10
2023-03-21T20:38:51.454Z,3.00
2023-03-21T20:41:20.949Z,2.95
2023-03-21T20:46:43.113Z,2.89
2023-03-21T20:49:13.191Z,2.85
2023-03-21T20:52:44.646Z,2.79
2023-03-21T20:54:31.746Z,2.78
2023-03-21T20:57:04.196Z,2.73
2023-03-21T20:59:33.980Z,2.72
2023-03-21T21:02:05.107Z,2.69
2023-03-21T21:04:49.826Z,2.65
2023-03-21T21:07:27.120Z,2.65
2023-03-21T21:09:56.264Z,2.61
2023-03-21T21:12:26.973Z,2.57
2023-03-21T21:14:55.995Z,2.57
2023-03-21T21:20:17.235Z,2.48
2023-03-21T21:22:59.436Z,2.47
2023-03-21T21:25:33.137Z,2.41
2023-03-21T21:28:02.358Z,2.40
2023-03-21T21:30:33.686Z,2.37
2023-03-21T21:33:02.448Z,2.32
2023-03-21T21:35:33.076Z,2.32
2023-03-21T21:38:01.877Z,2.26
2023-03-21T21:40:31.158Z,2.21
2023-03-21T21:43:03.427Z,2.23
2023-03-21T21:45:32.369Z,2.21
2023-03-21T21:48:01.601Z,2.17
2023-03-21T21:50:30.627Z,2.17
2023-03-21T21:53:03.068Z,2.14
2023-03-21T21:55:33.523Z,2.10
2023-03-21T21:58:03.417Z,2.09
2023-03-21T22:00:33.972Z,2.06
2023-03-21T22:03:02.806Z,2.02
2023-03-21T22:05:32.089Z,1.98
2023-03-21T22:08:00.856Z,1.95
2023-03-21T22:10:32.439Z,1.90
2023-03-21T22:13:01.437Z,1.89
2023-03-21T22:15:30.395Z,1.86
2023-03-21T22:17:59.260Z,1.85
2023-03-21T22:20:28.049Z,1.82
2023-03-21T22:22:59.003Z,1.83
2023-03-21T22:25:28.511Z,1.79
2023-03-21T22:27:57.293Z,1.75
2023-03-21T22:30:26.538Z,1.72
2023-03-21T22:33:08.460Z,1.71
2023-03-21T22:35:37.765Z,1.71
2023-03-21T22:38:08.218Z,1.68
2023-03-21T22:40:37.506Z,1.68
2023-03-21T22:43:08.298Z,1.64
2023-03-21T22:45:37.505Z,1.62
2023-03-21T22:48:08.985Z,1.60
2023-03-21T22:50:38.399Z,1.57
2023-03-21T22:53:07.818Z,1.54
2023-03-21T22:55:37.838Z,1.53
2023-03-21T22:58:07.086Z,1.50
2023-03-21T23:00:38.530Z,1.46
2023-03-21T23:03:08.238Z,1.46
2023-03-21T23:05:40.633Z,1.43
2023-03-21T23:08:09.887Z,1.43
2023-03-21T23:10:39.478Z,1.42
2023-03-21T23:13:08.979Z,1.34
2023-03-21T23:15:39.482Z,1.34
2023-03-21T23:18:09.369Z,1.33
2023-03-21T23:20:40.568Z,1.33
2023-03-21T23:23:09.704Z,1.29
2023-03-21T23:25:42.319Z,1.27
2023-03-21T23:28:12.052Z,1.25
2023-03-21T23:30:41.333Z,1.19
2023-03-21T23:33:13.864Z,1.16
2023-03-21T23:35:43.121Z,1.15
2023-03-21T23:38:12.574Z,1.16
2023-03-21T23:40:41.619Z,1.12
2023-03-21T23:43:10.856Z,1.13
2023-03-21T23:45:41.471Z,1.10
2023-03-21T23:48:10.620Z,1.07
2023-03-21T23:50:41.332Z,1.06
2023-03-21T23:53:10.285Z,1.02
2023-03-21T23:55:41.359Z,1.05
2023-03-21T23:58:13.944Z,1.00
